createdAt,value
2022-08-08T00:00:50.375Z,20.24
2022-08-08T00:02:37.128Z,19.78
2022-08-08T00:05:17.257Z,20.01
2022-08-08T00:07:45.089Z,19.46
2022-08-08T00:10:22.281Z,19.77
2022-08-08T00:13:10.174Z,19.82
2022-08-08T00:15:56.858Z,19.62
2022-08-08T00:18:50.350Z,19.23
2022-08-08T00:21:24.621Z,19.17
2022-08-08T00:23:59.420Z,18.55
2022-08-08T00:26:33.238Z,18.48
2022-08-08T00:29:17.574Z,19.04
2022-08-08T00:32:34.458Z,18.43
2022-08-08T00:35:40.999Z,19.35
2022-08-08T00:38:31.523Z,18.89
2022-08-08T00:41:54.466Z,19.36
2022-08-08T00:44:21.965Z,18.94
2022-08-08T00:47:23.055Z,19.47
2022-08-08T00:50:10.449Z,19.54
2022-08-08T00:53:15.543Z,19.49
2022-08-08T00:56:16.373Z,18.98
2022-08-08T00:58:54.119Z,19.42
2022-08-08T01:01:38.421Z,19.12
2022-08-08T01:04:20.857Z,19.76
2022-08-08T01:07:34.772Z,20.42
2022-08-08T01:10:55.248Z,19.33
2022-08-08T01:13:52.889Z,19.07
2022-08-08T01:16:58.729Z,20.19
2022-08-08T01:20:01.771Z,20.49
2022-08-08T01:23:55.078Z,19.44
2022-08-08T01:26:49.258Z,20.05
2022-08-08T01:29:35.380Z,20.40
2022-08-08T01:32:36.678Z,20.43
2022-08-08T01:35:32.818Z,20.68
2022-08-08T01:38:15.178Z,20.67
2022-08-08T01:41:16.162Z,20.01
2022-08-08T01:43:54.354Z,20.51
2022-08-08T01:46:47.428Z,20.68
2022-08-08T01:49:47.799Z,19.98
2022-08-08T01:53:28.804Z,19.68
2022-08-08T01:56:28.109Z,20.21
2022-08-08T01:58:50.830Z,20.14
2022-08-08T02:01:28.056Z,20.80
2022-08-08T02:04:19.778Z,21.01
2022-08-08T02:06:54.284Z,21.16
2022-08-08T02:10:01.310Z,20.60
2022-08-08T02:12:32.228Z,20.43
2022-08-08T02:15:12.447Z,20.75
2022-08-08T02:17:53.438Z,20.52
2022-08-08T02:21:00.877Z,19.41
2022-08-08T02:23:31.933Z,19.71
2022-08-08T02:26:09.992Z,20.39
2022-08-08T02:29:18.672Z,20.50
2022-08-08T02:32:05.510Z,20.34
2022-08-08T02:35:08.041Z,20.29
2022-08-08T02:37:58.534Z,19.96
2022-08-08T02:40:57.758Z,19.11
2022-08-08T02:44:38.391Z,19.49
2022-08-08T02:46:50.698Z,20.13
2022-08-08T02:49:47.923Z,20.15
2022-08-08T02:52:50.688Z,19.81
2022-08-08T02:56:01.679Z,19.63
2022-08-08T02:58:44.364Z,20.22
2022-08-08T03:02:07.954Z,20.29
2022-08-08T03:05:09.342Z,20.25
2022-08-08T03:07:57.922Z,20.31
2022-08-08T03:11:31.805Z,20.04
2022-08-08T03:16:03.866Z,19.91
2022-08-08T03:17:39.331Z,19.68
2022-08-08T03:20:10.389Z,19.76
2022-08-08T03:22:56.847Z,19.88
2022-08-08T03:25:33.929Z,20.25
2022-08-08T03:28:08.168Z,20.08
2022-08-08T03:30:36.580Z,20.43
2022-08-08T03:33:54.994Z,20.41
2022-08-08T03:36:13.588Z,19.73
2022-08-08T03:38:57.899Z,20.10
2022-08-08T03:42:28.066Z,20.54
2022-08-08T03:44:25.767Z,20.79
2022-08-08T03:46:54.587Z,20.14
2022-08-08T03:49:56.586Z,20.83
2022-08-08T03:52:13.101Z,20.31
2022-08-08T03:55:02.268Z,19.94
2022-08-08T03:58:30.461Z,20.46
2022-08-08T04:00:27.039Z,20.21
2022-08-08T04:03:01.694Z,20.94
2022-08-08T04:05:35.520Z,21.36
2022-08-08T04:08:06.509Z,20.79
2022-08-08T04:10:36.104Z,20.12
2022-08-08T04:13:17.866Z,21.19
2022-08-08T04:16:03.220Z,20.66
2022-08-08T04:18:32.766Z,21.24
2022-08-08T04:21:00.847Z,20.79
2022-08-08T04:24:04.735Z,21.41
2022-08-08T04:26:18.068Z,21.13
2022-08-08T04:28:47.538Z,20.98
2022-08-08T04:31:56.663Z,21.12
2022-08-08T04:34:10.669Z,21.72
2022-08-08T04:36:39.869Z,21.74
2022-08-08T04:40:04.670Z,21.02
2022-08-08T04:41:56.461Z,21.59
2022-08-08T04:44:26.868Z,21.59
2022-08-08T04:46:55.427Z,21.18
2022-08-08T04:49:28.727Z,20.79
2022-08-08T04:51:57.757Z,20.81
2022-08-08T04:54:38.585Z,21.70
2022-08-08T04:57:09.840Z,21.97
2022-08-08T04:59:42.692Z,22.08
2022-08-08T05:02:13.783Z,22.73
2022-08-08T05:04:44.327Z,22.13
2022-08-08T05:07:14.965Z,22.17
2022-08-08T05:09:43.413Z,21.88
2022-08-08T05:12:21.058Z,22.69
2022-08-08T05:14:52.319Z,23.24
2022-08-08T05:17:21.519Z,23.17
2022-08-08T05:20:09.375Z,22.54
2022-08-08T05:22:38.398Z,22.94
2022-08-08T05:25:07.669Z,23.33
2022-08-08T05:27:41.408Z,22.97
2022-08-08T05:30:13.489Z,23.42
2022-08-08T05:32:42.573Z,23.52
2022-08-08T05:35:13.563Z,23.19
2022-08-08T05:37:52.000Z,22.99
2022-08-08T05:40:28.279Z,23.32
2022-08-08T05:43:15.428Z,23.80
2022-08-08T05:46:02.974Z,24.11
2022-08-08T05:48:34.655Z,24.37
2022-08-08T05:51:14.731Z,24.59
2022-08-08T05:54:26.148Z,24.01
2022-08-08T05:56:42.205Z,24.24
2022-08-08T05:59:58.802Z,24.81
2022-08-08T06:02:43.273Z,24.66
2022-08-08T06:05:24.409Z,24.30
2022-08-08T06:08:09.036Z,24.53
2022-08-08T06:10:40.876Z,25.39
2022-08-08T06:13:09.722Z,25.37
2022-08-08T06:15:51.051Z,24.72
2022-08-08T06:18:25.586Z,24.35
2022-08-08T06:20:56.484Z,24.40
2022-08-08T06:23:49.119Z,24.76
2022-08-08T06:26:38.605Z,25.29
2022-08-08T06:29:26.261Z,24.39
2022-08-08T06:32:10.778Z,24.89
2022-08-08T06:34:56.352Z,25.15
2022-08-08T06:37:40.007Z,24.89
2022-08-08T06:40:15.936Z,23.92
2022-08-08T06:43:06.709Z,23.66
2022-08-08T06:45:39.369Z,23.89
2022-08-08T06:48:10.118Z,24.53
2022-08-08T06:50:39.568Z,24.26
2022-08-08T06:53:17.466Z,24.40
2022-08-08T06:56:02.697Z,24.50
2022-08-08T06:58:33.693Z,23.98
2022-08-08T07:01:11.551Z,24.81
2022-08-08T07:04:40.606Z,24.23
2022-08-08T07:06:51.213Z,25.34
2022-08-08T07:09:21.465Z,25.91
2022-08-08T07:11:52.139Z,25.97
2022-08-08T07:14:28.156Z,25.78
2022-08-08T07:17:14.506Z,26.06
2022-08-08T07:19:55.999Z,26.26
2022-08-08T07:22:39.315Z,26.21
2022-08-08T07:25:10.551Z,25.78
2022-08-08T07:28:01.811Z,25.79
2022-08-08T07:30:31.951Z,26.02
2022-08-08T07:33:01.561Z,25.94
2022-08-08T07:35:31.613Z,26.57
2022-08-08T07:38:10.429Z,26.02
2022-08-08T07:40:50.563Z,25.98
2022-08-08T07:43:23.244Z,25.78
2022-08-08T07:46:23.162Z,26.55
2022-08-08T07:48:54.200Z,26.86
2022-08-08T07:51:45.363Z,26.16
2022-08-08T07:54:27.131Z,26.28
2022-08-08T07:57:21.153Z,27.27
2022-08-08T08:00:02.170Z,28.21
2022-08-08T08:02:39.647Z,29.37
2022-08-08T08:05:33.398Z,28.54
2022-08-08T08:08:20.522Z,29.02
2022-08-08T08:10:56.947Z,30.24
2022-08-08T08:13:42.957Z,30.05
2022-08-08T08:16:25.372Z,29.64
2022-08-08T08:18:58.129Z,29.54
2022-08-08T08:21:35.431Z,29.40
2022-08-08T08:24:13.972Z,30.61
2022-08-08T08:26:46.853Z,30.48
2022-08-08T08:29:20.929Z,30.64
2022-08-08T08:31:57.493Z,30.71
2022-08-08T08:34:32.414Z,30.98
2022-08-08T08:37:07.513Z,31.12
2022-08-08T08:40:00.591Z,31.40
2022-08-08T08:42:31.924Z,31.30
2022-08-08T08:45:10.404Z,30.21
2022-08-08T08:47:53.285Z,31.01
2022-08-08T08:50:33.415Z,29.09
2022-08-08T08:53:27.833Z,28.93
2022-08-08T08:56:02.109Z,29.04
2022-08-08T08:58:37.915Z,29.39
2022-08-08T09:01:10.181Z,28.82
2022-08-08T09:03:47.372Z,28.76
2022-08-08T09:06:28.540Z,29.05
2022-08-08T09:09:19.191Z,29.11
2022-08-08T09:12:02.252Z,28.48
2022-08-08T09:14:35.588Z,28.46
2022-08-08T09:17:17.327Z,27.99
2022-08-08T09:21:56.138Z,27.03
2022-08-08T09:22:41.371Z,26.92
2022-08-08T09:25:10.546Z,26.81
2022-08-08T09:27:55.830Z,27.35
2022-08-08T09:30:29.845Z,27.45
2022-08-08T09:33:12.574Z,27.83
2022-08-08T09:35:48.840Z,27.77
2022-08-08T09:38:53.412Z,28.13
2022-08-08T09:42:14.733Z,28.45
2022-08-08T09:45:04.153Z,28.52
2022-08-08T09:48:11.384Z,27.97
2022-08-08T09:50:32.544Z,28.11
2022-08-08T09:53:23.480Z,27.78
2022-08-08T09:56:04.260Z,28.00
2022-08-08T09:58:41.755Z,28.39
2022-08-08T10:01:14.381Z,27.43
2022-08-08T10:03:55.907Z,28.09
2022-08-08T10:06:29.564Z,27.85
2022-08-08T10:08:58.454Z,27.96
2022-08-08T10:12:27.281Z,27.95
2022-08-08T10:14:34.866Z,27.36
2022-08-08T10:17:57.458Z,27.26
2022-08-08T10:20:00.360Z,27.86
2022-08-08T10:22:30.272Z,28.06
2022-08-08T10:25:05.833Z,28.23
2022-08-08T10:27:42.620Z,27.54
2022-08-08T10:30:16.518Z,27.16
2022-08-08T10:33:00.771Z,28.17
2022-08-08T10:36:07.315Z,27.69
2022-08-08T10:38:20.345Z,26.99
2022-08-08T10:40:53.594Z,27.14
2022-08-08T10:43:22.205Z,26.87
2022-08-08T10:45:56.466Z,27.46
2022-08-08T10:48:38.737Z,27.72
2022-08-08T10:51:24.429Z,26.16
2022-08-08T10:53:59.792Z,26.48
2022-08-08T10:56:35.247Z,26.61
2022-08-08T10:59:14.359Z,27.33
2022-08-08T11:01:54.686Z,27.52
2022-08-08T11:04:29.620Z,26.42
2022-08-08T11:07:07.309Z,26.98
2022-08-08T11:09:35.557Z,26.96
2022-08-08T11:12:14.138Z,26.58
2022-08-08T11:15:02.333Z,26.99
2022-08-08T11:18:00.335Z,27.22
2022-08-08T11:20:28.842Z,27.93
2022-08-08T11:22:59.962Z,27.87
2022-08-08T11:25:52.874Z,27.89
2022-08-08T11:28:29.432Z,27.26
2022-08-08T11:31:00.424Z,27.57
2022-08-08T11:33:51.546Z,27.85
2022-08-08T11:36:17.669Z,27.80
2022-08-08T11:38:55.201Z,27.28
2022-08-08T11:41:27.693Z,26.92
2022-08-08T11:43:57.791Z,26.46
2022-08-08T11:46:30.644Z,25.99
2022-08-08T11:49:07.004Z,25.62
2022-08-08T11:51:40.038Z,25.48
2022-08-08T11:54:31.074Z,25.51
2022-08-08T11:57:35.292Z,24.75
2022-08-08T12:00:09.769Z,25.47
2022-08-08T12:02:50.918Z,24.89
2022-08-08T12:05:33.963Z,25.30
2022-08-08T12:08:02.369Z,24.97
2022-08-08T12:10:33.564Z,25.41
2022-08-08T12:13:10.178Z,25.85
2022-08-08T12:15:46.715Z,26.14
2022-08-08T12:18:26.103Z,25.60
2022-08-08T12:20:56.617Z,25.74
2022-08-08T12:23:42.657Z,26.25
2022-08-08T12:26:27.455Z,25.88
2022-08-08T12:29:41.033Z,25.65
2022-08-08T12:32:20.133Z,25.38
2022-08-08T12:35:04.947Z,26.14
2022-08-08T12:38:01.939Z,26.59
2022-08-08T12:40:56.644Z,26.41
2022-08-08T12:43:46.226Z,25.39
2022-08-08T12:46:26.522Z,25.57
2022-08-08T12:51:59.091Z,25.35
2022-08-08T12:54:36.558Z,25.06
2022-08-08T12:57:14.249Z,25.91
2022-08-08T13:00:05.906Z,25.79
2022-08-08T13:02:51.019Z,25.64
2022-08-08T13:05:26.707Z,25.80
2022-08-08T13:08:22.064Z,26.03
2022-08-08T13:10:56.312Z,25.82
2022-08-08T13:13:35.413Z,25.93
2022-08-08T13:16:25.647Z,26.16
2022-08-08T13:19:01.700Z,26.13
2022-08-08T13:21:53.802Z,26.64
2022-08-08T13:24:39.430Z,26.20
2022-08-08T13:27:17.102Z,26.40
2022-08-08T13:29:53.476Z,26.09
2022-08-08T13:32:25.237Z,26.05
2022-08-08T13:34:58.947Z,26.26
2022-08-08T13:38:04.537Z,26.40
2022-08-08T13:40:26.483Z,26.49
2022-08-08T13:42:56.152Z,27.23
2022-08-08T13:45:26.480Z,26.40
2022-08-08T13:48:02.898Z,26.14
2022-08-08T13:50:48.056Z,26.58
2022-08-08T13:53:36.143Z,26.40
2022-08-08T13:56:11.756Z,26.64
2022-08-08T13:58:56.165Z,26.70
2022-08-08T14:01:41.681Z,26.38
2022-08-08T14:04:22.076Z,26.73
2022-08-08T14:06:50.198Z,26.57
2022-08-08T14:09:29.969Z,26.45
2022-08-08T14:12:00.171Z,26.17
2022-08-08T14:14:40.087Z,26.45
2022-08-08T14:17:22.065Z,26.36
2022-08-08T14:19:57.739Z,26.06
2022-08-08T14:22:44.110Z,25.73
2022-08-08T14:25:15.499Z,25.47
2022-08-08T14:27:59.623Z,25.98
2022-08-08T14:30:34.501Z,25.75
2022-08-08T14:33:03.330Z,25.80
2022-08-08T14:35:43.292Z,26.12
2022-08-08T14:38:34.041Z,25.13
2022-08-08T14:41:14.823Z,25.57
2022-08-08T14:44:11.022Z,25.24
2022-08-08T14:46:40.399Z,25.09
2022-08-08T14:49:20.453Z,25.42
2022-08-08T14:52:08.235Z,25.03
2022-08-08T14:54:49.958Z,25.48
2022-08-08T14:57:18.410Z,25.52
2022-08-08T14:59:50.887Z,25.31
2022-08-08T15:02:25.545Z,25.01
2022-08-08T15:05:10.731Z,24.95
2022-08-08T15:07:41.381Z,24.85
2022-08-08T15:10:12.693Z,24.72
2022-08-08T15:12:41.606Z,24.49
2022-08-08T15:15:10.439Z,24.30
2022-08-08T15:17:40.880Z,24.07
2022-08-08T15:20:14.181Z,24.37
2022-08-08T15:22:44.427Z,24.90
2022-08-08T15:25:17.840Z,24.67
2022-08-08T15:28:03.944Z,24.77
2022-08-08T15:30:45.933Z,25.12
2022-08-08T15:33:20.861Z,24.94
2022-08-08T15:36:03.579Z,24.58
2022-08-08T15:38:31.371Z,24.38
2022-08-08T15:40:59.989Z,24.60
2022-08-08T15:43:35.977Z,24.34
2022-08-08T15:46:04.504Z,23.84
2022-08-08T15:48:32.678Z,24.30
2022-08-08T15:51:06.462Z,23.96
2022-08-08T15:53:40.611Z,23.99
2022-08-08T15:56:20.030Z,24.21
2022-08-08T15:58:49.377Z,24.00
2022-08-08T16:01:18.655Z,24.02
2022-08-08T16:03:51.628Z,24.31
2022-08-08T16:06:27.809Z,24.32
2022-08-08T16:13:00.398Z,24.26
2022-08-08T16:13:03.741Z,23.83
2022-08-08T16:14:36.752Z,23.89
2022-08-08T16:17:06.255Z,23.62
2022-08-08T16:19:59.953Z,23.66
2022-08-08T16:22:30.139Z,23.60
2022-08-08T16:25:00.356Z,23.35
2022-08-08T16:27:35.465Z,23.44
2022-08-08T16:30:10.533Z,23.50
2022-08-08T16:32:42.381Z,23.91
2022-08-08T16:35:10.673Z,23.69
2022-08-08T16:37:47.446Z,23.94
2022-08-08T16:40:19.633Z,23.57
2022-08-08T16:42:51.610Z,23.15
2022-08-08T16:46:37.591Z,23.58
2022-08-08T16:48:13.294Z,24.03
2022-08-08T16:50:41.693Z,23.96
2022-08-08T16:55:03.423Z,23.58
2022-08-08T16:56:00.579Z,23.40
2022-08-08T16:58:31.676Z,23.57
2022-08-08T17:01:10.707Z,23.49
2022-08-08T17:04:00.843Z,22.87
2022-08-08T17:06:39.544Z,22.85
2022-08-08T17:09:14.704Z,22.71
2022-08-08T17:11:48.485Z,22.76
2022-08-08T17:14:27.076Z,22.87
2022-08-08T17:16:58.463Z,22.97
2022-08-08T17:19:30.082Z,23.37
2022-08-08T17:22:01.559Z,23.31
2022-08-08T17:24:31.105Z,23.21
2022-08-08T17:27:01.742Z,22.68
2022-08-08T17:29:33.909Z,22.94
2022-08-08T17:32:05.893Z,22.70
2022-08-08T17:35:52.015Z,23.02
2022-08-08T17:37:27.581Z,22.44
2022-08-08T17:40:05.728Z,22.39
2022-08-08T17:42:47.233Z,22.27
2022-08-08T17:45:23.687Z,22.19
2022-08-08T17:47:54.088Z,21.93
2022-08-08T17:50:23.842Z,21.62
2022-08-08T17:52:57.607Z,21.83
2022-08-08T17:56:06.788Z,21.94
2022-08-08T17:58:15.310Z,21.87
2022-08-08T18:00:43.155Z,21.37
2022-08-08T18:03:23.016Z,21.38
2022-08-08T18:05:50.940Z,21.42
2022-08-08T18:08:24.868Z,21.51
2022-08-08T18:11:16.894Z,21.25
2022-08-08T18:13:46.042Z,20.79
2022-08-08T18:16:20.655Z,20.89
2022-08-08T18:18:56.336Z,20.63
2022-08-08T18:21:59.104Z,21.01
2022-08-08T18:24:21.380Z,20.93
2022-08-08T18:26:56.795Z,20.94
2022-08-08T18:29:34.612Z,20.94
2022-08-08T18:32:08.513Z,20.97
2022-08-08T18:34:37.644Z,20.79
2022-08-08T18:37:09.615Z,20.57
2022-08-08T18:39:39.031Z,20.14
2022-08-08T18:42:16.599Z,20.25
2022-08-08T18:44:54.936Z,20.21
2022-08-08T18:47:26.421Z,20.42
2022-08-08T18:49:57.964Z,20.35
2022-08-08T18:52:36.835Z,20.59
2022-08-08T18:55:10.332Z,20.47
2022-08-08T18:57:44.617Z,20.93
2022-08-08T19:00:16.375Z,21.04
2022-08-08T19:02:55.825Z,20.82
2022-08-08T19:05:32.227Z,20.70
2022-08-08T19:08:24.510Z,20.93
2022-08-08T19:11:01.490Z,20.70
2022-08-08T19:13:52.949Z,20.63
2022-08-08T19:16:20.593Z,20.49
2022-08-08T19:19:00.023Z,20.53
2022-08-08T19:21:33.306Z,20.43
2022-08-08T19:24:05.409Z,20.38
2022-08-08T19:26:35.391Z,20.77
2022-08-08T19:29:07.241Z,20.68
2022-08-08T19:31:35.995Z,20.60
2022-08-08T19:34:30.388Z,20.50
2022-08-08T19:36:59.269Z,20.82
2022-08-08T19:39:30.904Z,20.46
2022-08-08T19:42:05.318Z,20.40
2022-08-08T19:44:45.815Z,20.67
2022-08-08T19:47:15.741Z,20.35
2022-08-08T19:50:00.274Z,20.69
2022-08-08T19:52:34.854Z,20.83
2022-08-08T19:55:12.863Z,20.65
2022-08-08T19:57:44.467Z,20.51
2022-08-08T20:00:29.066Z,20.53
2022-08-08T20:03:00.305Z,20.63
2022-08-08T20:06:13.567Z,20.79
2022-08-08T20:08:30.024Z,20.61
2022-08-08T20:11:00.508Z,20.30
2022-08-08T20:14:34.653Z,20.52
2022-08-08T20:16:18.549Z,20.87
2022-08-08T20:18:52.655Z,20.81
2022-08-08T20:21:25.396Z,20.52
2022-08-08T20:23:57.500Z,20.16
2022-08-08T20:26:30.083Z,20.54
2022-08-08T20:29:04.355Z,20.43
2022-08-08T20:32:08.014Z,20.49
2022-08-08T20:34:30.629Z,20.55
2022-08-08T20:37:00.946Z,20.56
2022-08-08T20:39:39.720Z,20.64
2022-08-08T20:42:28.531Z,20.43
2022-08-08T20:44:58.866Z,20.59
2022-08-08T20:47:26.952Z,20.69
2022-08-08T20:50:05.857Z,20.63
2022-08-08T20:52:33.811Z,20.44
2022-08-08T20:55:01.817Z,20.48
2022-08-08T20:57:47.689Z,20.95
2022-08-08T21:00:19.104Z,20.54
2022-08-08T21:02:48.565Z,21.24
2022-08-08T21:05:21.547Z,21.13
2022-08-08T21:08:36.953Z,21.04
2022-08-08T21:10:40.802Z,21.29
2022-08-08T21:13:09.201Z,21.22
2022-08-08T21:16:05.402Z,21.28
2022-08-08T21:18:27.979Z,20.74
2022-08-08T21:20:55.961Z,21.23
2022-08-08T21:23:58.641Z,20.74
2022-08-08T21:26:12.499Z,20.90
2022-08-08T21:28:40.888Z,20.96
2022-08-08T21:31:23.188Z,21.09
2022-08-08T21:33:52.451Z,20.99
2022-08-08T21:36:28.539Z,21.19
2022-08-08T21:38:57.159Z,21.65
2022-08-08T21:41:28.984Z,20.92
2022-08-08T21:44:12.026Z,20.68
2022-08-08T21:48:05.918Z,21.02
2022-08-08T21:49:30.336Z,21.08
2022-08-08T21:54:17.506Z,20.56
2022-08-08T21:54:53.969Z,20.55
2022-08-08T21:57:42.607Z,20.62
2022-08-08T22:00:14.729Z,20.30
2022-08-08T22:02:44.552Z,20.72
2022-08-08T22:05:14.959Z,20.21
2022-08-08T22:07:48.457Z,20.92
2022-08-08T22:10:32.026Z,20.64
2022-08-08T22:13:17.292Z,21.05
2022-08-08T22:15:58.542Z,21.04
2022-08-08T22:18:35.363Z,20.79
2022-08-08T22:21:13.740Z,20.81
2022-08-08T22:23:49.560Z,20.86
2022-08-08T22:26:29.154Z,20.97
2022-08-08T22:29:13.452Z,20.85
2022-08-08T22:32:01.804Z,21.16
2022-08-08T22:34:32.280Z,21.38
2022-08-08T22:37:00.549Z,21.59
2022-08-08T22:39:46.070Z,21.10
2022-08-08T22:42:27.368Z,21.60
2022-08-08T22:44:59.553Z,21.19
2022-08-08T22:47:34.452Z,21.13
2022-08-08T22:50:21.715Z,21.55
2022-08-08T22:54:17.064Z,21.39
2022-08-08T22:55:58.263Z,20.92
2022-08-08T22:58:32.830Z,21.25
2022-08-08T23:02:01.172Z,21.61
2022-08-08T23:03:54.646Z,21.20
2022-08-08T23:06:27.139Z,21.30
2022-08-08T23:08:58.981Z,21.64
2022-08-08T23:11:30.996Z,21.70
2022-08-08T23:14:21.254Z,21.57
2022-08-08T23:16:57.564Z,21.72
2022-08-08T23:19:30.691Z,21.74
2022-08-08T23:22:04.567Z,21.12
2022-08-08T23:24:41.541Z,21.51
2022-08-08T23:27:37.931Z,21.27
2022-08-08T23:29:59.850Z,20.90
2022-08-08T23:32:27.654Z,20.77
2022-08-08T23:34:58.969Z,20.24
2022-08-08T23:38:02.136Z,20.51
2022-08-08T23:40:16.791Z,21.44
2022-08-08T23:42:51.259Z,21.29
2022-08-08T23:45:19.589Z,20.57
2022-08-08T23:49:08.139Z,20.86
2022-08-08T23:50:57.447Z,20.22
2022-08-08T23:54:01.352Z,20.31
2022-08-08T23:56:14.099Z,19.68
2022-08-08T23:59:00.253Z,19.72
